createdAt,value
2019-04-26T00:01:49.830Z,52.60
2019-04-26T00:03:52.496Z,53.00
2019-04-26T00:05:54.403Z,53.40
2019-04-26T00:07:55.770Z,52.40
2019-04-26T00:09:59.040Z,53.60
2019-04-26T00:12:18.347Z,53.60
2019-04-26T00:14:22.617Z,53.50
2019-04-26T00:16:34.911Z,53.30
2019-04-26T00:18:36.539Z,53.90
2019-04-26T00:20:38.008Z,55.00
2019-04-26T00:22:39.487Z,54.60
2019-04-26T00:24:41.109Z,55.00
2019-04-26T00:26:42.489Z,55.60
2019-04-26T00:28:44.102Z,55.50
2019-04-26T00:30:45.472Z,56.00
2019-04-26T00:32:46.849Z,55.90
2019-04-26T00:34:48.291Z,57.10
2019-04-26T00:36:49.689Z,57.70
2019-04-26T00:38:51.157Z,57.60
2019-04-26T00:40:53.364Z,57.90
2019-04-26T00:42:57.567Z,59.40
2019-04-26T00:44:58.703Z,60.00
2019-04-26T00:47:01.760Z,61.00
2019-04-26T00:49:03.942Z,61.70
2019-04-26T00:51:05.606Z,63.50
2019-04-26T00:53:08.109Z,65.10
2019-04-26T00:55:10.132Z,65.50
2019-04-26T00:57:11.802Z,66.40
2019-04-26T00:59:15.096Z,68.60
2019-04-26T01:01:20.693Z,70.40
2019-04-26T01:03:22.823Z,72.10
2019-04-26T01:05:25.275Z,73.60
2019-04-26T01:07:26.867Z,74.40
2019-04-26T01:09:28.331Z,78.10
2019-04-26T01:11:29.761Z,79.10
2019-04-26T01:13:31.118Z,81.10
2019-04-26T01:15:32.663Z,82.40
2019-04-26T01:17:34.033Z,84.60
2019-04-26T01:19:37.237Z,85.30
2019-04-26T01:21:47.099Z,86.90
2019-04-26T01:23:50.405Z,90.20
2019-04-26T01:26:00.136Z,90.40
2019-04-26T01:28:02.309Z,91.20
2019-04-26T01:30:07.919Z,91.50
2019-04-26T01:32:10.593Z,93.20
2019-04-26T01:34:12.195Z,93.10
2019-04-26T01:36:14.004Z,94.60
2019-04-26T01:38:16.078Z,95.50
2019-04-26T01:40:20.587Z,95.30
2019-04-26T01:42:30.576Z,96.20
2019-04-26T01:44:45.269Z,97.60
2019-04-26T01:46:48.576Z,98.30
2019-04-26T01:49:00.928Z,98.80
2019-04-26T01:51:02.303Z,99.50
2019-04-26T01:53:04.686Z,99.90
2019-04-26T01:55:06.587Z,99.90
2019-04-26T01:57:08.363Z,99.90
2019-04-26T01:59:13.272Z,99.90
2019-04-26T02:01:16.648Z,99.90
2019-04-26T02:03:20.053Z,99.90
2019-04-26T02:05:24.052Z,99.90
2019-04-26T02:07:33.772Z,99.90
2019-04-26T02:09:35.196Z,99.90
2019-04-26T02:11:37.559Z,99.90
2019-04-26T02:13:39.042Z,99.90
2019-04-26T02:15:40.567Z,99.90
2019-04-26T02:17:42.937Z,99.90
2019-04-26T02:19:44.458Z,99.90
2019-04-26T02:21:47.958Z,99.90
2019-04-26T02:23:52.474Z,99.90
2019-04-26T02:25:54.036Z,99.90
2019-04-26T02:27:55.433Z,99.90
2019-04-26T02:29:58.613Z,99.90
2019-04-26T02:32:03.662Z,99.90
2019-04-26T02:34:06.276Z,99.90
2019-04-26T02:36:07.655Z,99.90
2019-04-26T02:38:09.071Z,99.90
2019-04-26T02:40:14.179Z,99.90
2019-04-26T02:42:23.412Z,99.90
2019-04-26T02:44:31.287Z,99.90
2019-04-26T02:46:54.722Z,99.90
2019-04-26T02:49:02.295Z,99.90
2019-04-26T02:51:14.681Z,99.90
2019-04-26T02:53:31.556Z,99.90
2019-04-26T02:55:55.851Z,99.90
2019-04-26T02:57:57.414Z,99.90
2019-04-26T03:00:04.690Z,99.90
2019-04-26T03:02:11.713Z,99.90
2019-04-26T03:04:13.289Z,99.90
2019-04-26T03:06:14.767Z,99.90
2019-04-26T03:08:20.074Z,99.90
2019-04-26T03:10:28.642Z,99.90
2019-04-26T03:12:35.705Z,99.90
2019-04-26T03:14:41.949Z,99.90
2019-04-26T03:16:57.058Z,99.90
2019-04-26T03:19:26.244Z,99.90
2019-04-26T03:21:52.911Z,99.90
2019-04-26T03:24:14.512Z,99.90
2019-04-26T03:26:37.096Z,99.90
2019-04-26T03:29:15.406Z,99.90
2019-04-26T03:31:49.693Z,99.90
2019-04-26T03:34:06.845Z,99.90
2019-04-26T03:36:50.447Z,99.90
2019-04-26T03:39:23.143Z,99.90
2019-04-26T03:42:02.292Z,99.90
2019-04-26T03:44:20.766Z,99.90
2019-04-26T03:46:30.755Z,99.90
2019-04-26T03:49:10.151Z,99.90
2019-04-26T03:51:44.995Z,99.90
2019-04-26T03:54:11.661Z,99.90
2019-04-26T03:56:26.401Z,99.90
2019-04-26T03:59:01.186Z,99.90
2019-04-26T04:01:07.773Z,99.90
2019-04-26T04:03:19.020Z,99.90
2019-04-26T04:05:31.049Z,99.90
2019-04-26T04:07:39.059Z,99.90
2019-04-26T04:09:44.881Z,99.90
2019-04-26T04:12:11.613Z,99.90
2019-04-26T04:14:33.942Z,99.90
2019-04-26T04:17:03.837Z,99.90
2019-04-26T04:19:34.193Z,99.90
2019-04-26T04:22:03.429Z,99.90
2019-04-26T04:24:11.561Z,99.90
2019-04-26T04:26:18.641Z,99.90
2019-04-26T04:28:51.733Z,99.90
2019-04-26T04:31:13.974Z,99.90
2019-04-26T04:33:29.960Z,99.90
2019-04-26T04:35:37.044Z,99.90
2019-04-26T04:38:09.192Z,99.90
2019-04-26T04:40:25.168Z,99.90
2019-04-26T04:42:54.605Z,99.90
2019-04-26T04:45:33.934Z,99.90
2019-04-26T04:48:20.354Z,99.90
2019-04-26T04:50:34.476Z,99.90
2019-04-26T04:53:02.078Z,99.90
2019-04-26T04:55:20.731Z,99.90
2019-04-26T04:58:07.299Z,99.90
2019-04-26T05:00:31.478Z,99.90
2019-04-26T05:03:03.857Z,99.90
2019-04-26T05:05:24.229Z,99.90
2019-04-26T05:08:06.533Z,99.90
2019-04-26T05:10:17.938Z,99.90
2019-04-26T05:12:27.792Z,99.90
2019-04-26T05:15:21.531Z,99.90
2019-04-26T05:18:00.116Z,99.90
2019-04-26T05:20:27.426Z,99.90
2019-04-26T05:23:26.514Z,99.90
2019-04-26T05:26:25.067Z,99.90
2019-04-26T05:29:05.702Z,99.90
2019-04-26T05:31:30.619Z,99.90
2019-04-26T05:33:56.725Z,99.90
2019-04-26T05:36:21.478Z,99.90
2019-04-26T05:38:55.479Z,99.90
2019-04-26T05:41:42.984Z,99.90
2019-04-26T05:44:32.825Z,99.90
2019-04-26T05:47:31.255Z,99.90
2019-04-26T05:50:17.017Z,99.90
2019-04-26T05:52:55.352Z,99.90
2019-04-26T05:55:22.577Z,99.90
2019-04-26T05:57:51.093Z,99.90
2019-04-26T06:00:33.367Z,99.90
2019-04-26T06:03:08.320Z,99.90
2019-04-26T06:05:37.930Z,99.90
2019-04-26T06:08:13.309Z,99.90
2019-04-26T06:10:20.729Z,99.90
2019-04-26T06:12:41.003Z,99.90
2019-04-26T06:14:58.970Z,99.90
2019-04-26T06:17:17.059Z,99.90
2019-04-26T06:19:42.513Z,99.90
2019-04-26T06:22:23.409Z,99.90
2019-04-26T06:24:36.283Z,99.90
2019-04-26T06:27:21.608Z,99.90
2019-04-26T06:29:54.117Z,99.90
2019-04-26T06:32:16.660Z,99.90
2019-04-26T06:35:00.078Z,99.90
2019-04-26T06:37:14.764Z,99.90
2019-04-26T06:39:32.135Z,99.90
2019-04-26T06:42:06.878Z,99.90
2019-04-26T06:44:18.855Z,99.90
2019-04-26T06:46:57.730Z,99.90
2019-04-26T06:49:18.034Z,99.90
2019-04-26T06:51:57.022Z,99.90
2019-04-26T06:54:36.365Z,99.90
2019-04-26T06:56:57.444Z,99.90
2019-04-26T06:59:35.795Z,99.90
2019-04-26T07:01:40.332Z,99.90
2019-04-26T07:04:10.570Z,99.90
2019-04-26T07:06:17.641Z,99.90
2019-04-26T07:08:38.213Z,99.90
2019-04-26T07:11:03.033Z,99.90
2019-04-26T07:13:44.714Z,99.90
2019-04-26T07:16:23.151Z,99.90
2019-04-26T07:18:44.734Z,99.90
2019-04-26T07:21:35.265Z,99.90
2019-04-26T07:24:33.159Z,99.90
2019-04-26T07:26:55.323Z,99.90
2019-04-26T07:29:28.226Z,99.90
2019-04-26T07:31:52.441Z,99.90
2019-04-26T07:34:10.000Z,99.90
2019-04-26T07:36:34.728Z,99.90
2019-04-26T07:39:13.682Z,99.90
2019-04-26T07:41:31.413Z,99.90
2019-04-26T07:44:15.071Z,99.90
2019-04-26T07:46:54.956Z,99.90
2019-04-26T07:49:42.784Z,99.90
2019-04-26T07:52:22.037Z,99.90
2019-04-26T07:55:06.561Z,99.90
2019-04-26T07:57:45.146Z,99.90
2019-04-26T08:00:14.024Z,99.90
2019-04-26T08:02:55.446Z,99.90
2019-04-26T08:05:21.247Z,98.20
2019-04-26T08:07:28.329Z,97.10
2019-04-26T08:09:33.605Z,99.60
2019-04-26T08:11:49.057Z,99.30
2019-04-26T08:14:14.688Z,99.70
2019-04-26T08:16:36.598Z,99.90
2019-04-26T08:18:47.062Z,99.90
2019-04-26T08:20:53.075Z,96.70
2019-04-26T08:23:02.631Z,95.50
2019-04-26T08:25:10.307Z,95.10
2019-04-26T08:27:22.808Z,95.10
2019-04-26T08:29:21.862Z,97.00
2019-04-26T08:31:41.202Z,97.00
2019-04-26T08:33:53.493Z,96.40
2019-04-26T08:35:58.657Z,95.10
2019-04-26T08:38:10.334Z,96.80
2019-04-26T08:40:09.731Z,97.70
2019-04-26T08:42:32.370Z,99.00
2019-04-26T08:44:43.855Z,99.00
2019-04-26T08:46:51.820Z,99.90
2019-04-26T08:49:09.678Z,99.90
2019-04-26T08:51:20.474Z,99.90
2019-04-26T08:53:21.364Z,97.60
2019-04-26T08:55:25.731Z,96.00
2019-04-26T08:57:31.346Z,95.00
2019-04-26T08:59:47.296Z,93.10
2019-04-26T09:01:54.717Z,92.60
2019-04-26T09:04:02.427Z,91.60
2019-04-26T09:06:07.647Z,90.80
2019-04-26T09:08:13.146Z,83.10
2019-04-26T09:10:15.299Z,81.10
2019-04-26T09:12:23.332Z,77.70
2019-04-26T09:14:28.456Z,77.40
2019-04-26T09:16:29.923Z,75.10
2019-04-26T09:18:42.397Z,72.90
2019-04-26T09:20:34.633Z,79.20
2019-04-26T09:22:44.058Z,78.50
2019-04-26T09:24:47.357Z,80.70
2019-04-26T09:26:53.559Z,79.20
2019-04-26T09:29:13.465Z,79.90
2019-04-26T09:31:19.652Z,76.90
2019-04-26T09:33:31.871Z,78.30
2019-04-26T09:35:34.241Z,75.60
2019-04-26T09:37:35.621Z,76.10
2019-04-26T09:39:41.616Z,74.40
2019-04-26T09:41:40.739Z,73.00
2019-04-26T09:43:44.010Z,76.60
2019-04-26T09:45:50.407Z,76.30
2019-04-26T09:48:05.463Z,74.90
2019-04-26T09:50:16.990Z,73.60
2019-04-26T09:52:20.578Z,72.30
2019-04-26T09:54:22.002Z,70.60
2019-04-26T09:56:23.354Z,71.70
2019-04-26T09:58:26.841Z,69.40
2019-04-26T10:00:29.850Z,70.10
2019-04-26T10:02:33.892Z,70.40
2019-04-26T10:04:34.663Z,71.70
2019-04-26T10:06:36.027Z,71.40
2019-04-26T10:08:37.513Z,70.30
2019-04-26T10:10:39.239Z,70.30
2019-04-26T10:12:57.776Z,72.50
2019-04-26T10:15:18.127Z,72.00
2019-04-26T10:17:21.404Z,69.00
2019-04-26T10:19:31.658Z,69.80
2019-04-26T10:21:33.423Z,69.10
2019-04-26T10:23:34.799Z,66.50
2019-04-26T10:25:36.204Z,67.40
2019-04-26T10:27:40.773Z,66.70
2019-04-26T10:29:40.850Z,64.10
2019-04-26T10:31:42.604Z,64.70
2019-04-26T10:33:43.992Z,63.20
2019-04-26T10:35:45.361Z,62.20
2019-04-26T10:37:48.057Z,63.10
2019-04-26T10:39:50.145Z,62.90
2019-04-26T10:41:51.538Z,59.70
2019-04-26T10:43:52.941Z,59.10
2019-04-26T10:45:55.077Z,60.90
2019-04-26T10:47:56.611Z,61.40
2019-04-26T10:49:59.190Z,59.70
2019-04-26T10:52:00.912Z,59.50
2019-04-26T10:54:05.976Z,60.50
2019-04-26T10:56:12.143Z,55.60
2019-04-26T10:58:36.131Z,59.00
2019-04-26T11:00:37.512Z,58.40
2019-04-26T11:02:38.996Z,54.30
2019-04-26T11:04:41.434Z,55.50
2019-04-26T11:06:43.831Z,57.60
2019-04-26T11:08:45.225Z,55.80
2019-04-26T11:10:48.825Z,56.80
2019-04-26T11:12:50.081Z,55.50
2019-04-26T11:14:53.353Z,56.00
2019-04-26T11:16:54.936Z,54.70
2019-04-26T11:18:57.246Z,55.20
2019-04-26T11:20:59.700Z,55.90
2019-04-26T11:23:01.079Z,55.90
2019-04-26T11:25:03.977Z,53.20
2019-04-26T11:27:09.258Z,53.70
2019-04-26T11:29:08.662Z,55.80
2019-04-26T11:31:10.024Z,57.50
2019-04-26T11:33:12.731Z,56.10
2019-04-26T11:35:14.395Z,55.80
2019-04-26T11:37:17.946Z,56.60
2019-04-26T11:39:19.054Z,57.70
2019-04-26T11:41:20.558Z,57.70
2019-04-26T11:43:22.074Z,57.50
2019-04-26T11:45:23.555Z,55.50
2019-04-26T11:47:24.987Z,55.10
2019-04-26T11:49:26.377Z,55.50
2019-04-26T11:51:28.655Z,56.40
2019-04-26T11:53:33.192Z,56.80
2019-04-26T11:55:33.715Z,56.10
2019-04-26T11:57:35.090Z,57.60
2019-04-26T11:59:36.614Z,57.30
2019-04-26T12:01:40.485Z,59.60
2019-04-26T12:03:43.195Z,58.40
2019-04-26T12:05:55.256Z,57.70
2019-04-26T12:07:58.531Z,59.50
2019-04-26T12:10:01.918Z,59.20
2019-04-26T12:12:05.145Z,58.10
2019-04-26T12:14:19.371Z,57.20
2019-04-26T12:16:10.534Z,56.10
2019-04-26T12:18:11.967Z,54.70
2019-04-26T12:20:13.703Z,57.20
2019-04-26T12:22:15.120Z,57.90
2019-04-26T12:24:16.491Z,58.10
2019-04-26T12:26:21.589Z,57.20
2019-04-26T12:28:21.167Z,57.20
2019-04-26T12:30:26.421Z,56.70
2019-04-26T12:32:25.846Z,56.70
2019-04-26T12:34:27.258Z,58.80
2019-04-26T12:36:28.619Z,56.80
2019-04-26T12:38:30.124Z,55.60
2019-04-26T12:40:31.615Z,58.10
2019-04-26T12:42:32.990Z,59.40
2019-04-26T12:44:38.048Z,59.70
2019-04-26T12:46:53.496Z,58.60
2019-04-26T12:48:54.857Z,58.90
2019-04-26T12:50:56.264Z,57.90
2019-04-26T12:52:57.651Z,57.50
2019-04-26T12:54:59.018Z,57.10
2019-04-26T12:57:01.552Z,56.60
2019-04-26T12:59:03.729Z,57.00
2019-04-26T13:01:07.895Z,57.80
2019-04-26T13:03:20.040Z,59.20
2019-04-26T13:05:14.544Z,58.70
2019-04-26T13:07:23.929Z,59.70
2019-04-26T13:09:26.611Z,59.20
2019-04-26T13:11:48.412Z,58.00
2019-04-26T13:13:47.452Z,59.70
2019-04-26T13:16:09.207Z,55.40
2019-04-26T13:18:11.222Z,56.00
2019-04-26T13:20:13.512Z,55.20
2019-04-26T13:22:14.875Z,56.30
2019-04-26T13:24:16.254Z,55.40
2019-04-26T13:26:17.661Z,55.50
2019-04-26T13:28:20.177Z,54.80
2019-04-26T13:30:32.403Z,55.00
2019-04-26T13:32:25.591Z,55.30
2019-04-26T13:34:26.967Z,55.60
2019-04-26T13:36:29.168Z,54.50
2019-04-26T13:38:30.886Z,54.50
2019-04-26T13:40:32.262Z,54.40
2019-04-26T13:42:33.661Z,54.40
2019-04-26T13:44:51.812Z,54.80
2019-04-26T13:47:08.022Z,53.40
2019-04-26T13:49:19.351Z,53.70
2019-04-26T13:51:37.765Z,54.10
2019-04-26T13:53:39.160Z,53.70
2019-04-26T13:55:40.556Z,55.40
2019-04-26T13:57:44.489Z,54.50
2019-04-26T13:59:45.234Z,53.50
2019-04-26T14:01:46.650Z,53.60
2019-04-26T14:03:48.152Z,53.30
2019-04-26T14:05:49.499Z,53.10
2019-04-26T14:07:50.871Z,53.40
2019-04-26T14:09:52.568Z,54.90
2019-04-26T14:11:53.936Z,54.30
2019-04-26T14:13:59.436Z,55.70
2019-04-26T14:15:58.608Z,55.20
2019-04-26T14:18:00.314Z,53.70
2019-04-26T14:20:04.817Z,55.50
2019-04-26T14:22:07.232Z,53.60
2019-04-26T14:24:19.610Z,53.60
2019-04-26T14:26:22.392Z,54.50
2019-04-26T14:28:24.977Z,54.20
2019-04-26T14:30:26.629Z,55.00
2019-04-26T14:32:28.047Z,54.40
2019-04-26T14:34:29.403Z,55.30
2019-04-26T14:36:30.816Z,55.20
2019-04-26T14:38:39.336Z,55.90
2019-04-26T14:40:39.323Z,57.20
2019-04-26T14:42:46.075Z,57.50
2019-04-26T14:44:49.247Z,58.00
2019-04-26T14:46:48.994Z,58.90
2019-04-26T14:49:01.030Z,59.30
2019-04-26T14:50:53.405Z,58.70
2019-04-26T14:52:58.188Z,61.00
2019-04-26T14:54:58.195Z,58.10
2019-04-26T14:57:07.318Z,57.10
2019-04-26T14:59:08.363Z,57.20
2019-04-26T15:01:08.275Z,55.40
2019-04-26T15:03:12.286Z,56.00
2019-04-26T15:05:33.981Z,56.10
2019-04-26T15:07:48.585Z,57.40
2019-04-26T15:09:38.730Z,55.60
2019-04-26T15:11:52.857Z,56.10
2019-04-26T15:13:43.871Z,56.40
2019-04-26T15:15:46.293Z,56.00
2019-04-26T15:17:47.953Z,57.10
2019-04-26T15:19:49.399Z,56.10
2019-04-26T15:21:52.353Z,59.10
2019-04-26T15:23:55.299Z,57.40
2019-04-26T15:25:58.593Z,56.70
2019-04-26T15:28:02.317Z,57.90
2019-04-26T15:30:05.246Z,58.80
2019-04-26T15:32:06.636Z,57.50
2019-04-26T15:34:08.042Z,57.50
2019-04-26T15:36:14.501Z,57.90
2019-04-26T15:38:14.046Z,57.40
2019-04-26T15:40:35.066Z,57.50
2019-04-26T15:42:37.940Z,57.70
2019-04-26T15:44:43.913Z,57.80
2019-04-26T15:46:56.185Z,58.60
2019-04-26T15:49:03.110Z,57.80
2019-04-26T15:51:05.638Z,58.40
2019-04-26T15:53:12.825Z,59.50
2019-04-26T15:55:10.515Z,59.50
2019-04-26T15:57:12.386Z,58.50
2019-04-26T15:59:13.971Z,59.70
2019-04-26T16:01:15.368Z,60.00
2019-04-26T16:03:16.764Z,61.90
2019-04-26T16:05:18.128Z,62.10
2019-04-26T16:07:27.368Z,64.30
2019-04-26T16:09:22.953Z,64.40
2019-04-26T16:11:24.577Z,64.40
2019-04-26T16:13:25.970Z,65.40
2019-04-26T16:15:27.564Z,65.30
2019-04-26T16:17:28.938Z,66.30
2019-04-26T16:19:30.303Z,66.80
2019-04-26T16:21:32.396Z,66.70
2019-04-26T16:23:41.255Z,67.60
2019-04-26T16:25:38.352Z,67.30
2019-04-26T16:27:40.568Z,68.10
2019-04-26T16:29:46.665Z,68.00
2019-04-26T16:31:52.917Z,68.00
2019-04-26T16:33:56.295Z,68.40
2019-04-26T16:36:02.615Z,68.90
2019-04-26T16:38:06.975Z,70.10
2019-04-26T16:40:07.787Z,69.80
2019-04-26T16:42:10.530Z,71.70
2019-04-26T16:44:13.012Z,71.80
2019-04-26T16:46:20.723Z,72.90
2019-04-26T16:48:24.317Z,73.70
2019-04-26T16:50:28.002Z,76.00
2019-04-26T16:52:24.658Z,78.60
2019-04-26T16:54:26.827Z,81.70
2019-04-26T16:56:28.493Z,84.20
2019-04-26T16:58:31.045Z,86.20
2019-04-26T17:00:50.333Z,89.90
2019-04-26T17:02:37.024Z,90.90
2019-04-26T17:04:38.685Z,92.10
2019-04-26T17:06:44.922Z,93.00
2019-04-26T17:08:50.071Z,94.30
2019-04-26T17:10:48.066Z,94.70
2019-04-26T17:12:50.776Z,96.50
2019-04-26T17:14:52.846Z,97.90
2019-04-26T17:16:54.222Z,99.40
2019-04-26T17:18:59.483Z,99.90
2019-04-26T17:20:59.247Z,99.90
2019-04-26T17:23:03.270Z,99.90
2019-04-26T17:25:17.042Z,99.90
2019-04-26T17:27:22.671Z,99.90
2019-04-26T17:29:24.169Z,99.90
2019-04-26T17:31:25.734Z,99.90
2019-04-26T17:33:28.260Z,99.90
2019-04-26T17:35:30.600Z,99.90
2019-04-26T17:37:31.966Z,99.90
2019-04-26T17:39:33.340Z,99.90
2019-04-26T17:41:34.776Z,99.90
2019-04-26T17:43:36.141Z,99.90
2019-04-26T17:45:41.843Z,99.90
2019-04-26T17:47:42.380Z,99.90
2019-04-26T17:49:44.117Z,99.90
2019-04-26T17:51:45.897Z,99.90
2019-04-26T17:53:48.005Z,99.90
2019-04-26T17:55:54.409Z,99.90
2019-04-26T17:58:08.193Z,99.90
2019-04-26T18:00:07.283Z,99.90
2019-04-26T18:02:01.270Z,99.90
2019-04-26T18:04:03.150Z,99.90
2019-04-26T18:06:04.605Z,99.90
2019-04-26T18:08:31.596Z,99.90
2019-04-26T18:10:10.388Z,99.90
2019-04-26T18:12:12.004Z,99.90
2019-04-26T18:14:21.041Z,99.90
2019-04-26T18:16:17.846Z,99.90
2019-04-26T18:18:38.340Z,99.90
2019-04-26T18:20:47.352Z,99.90
2019-04-26T18:22:53.300Z,99.90
2019-04-26T18:24:54.659Z,99.90
2019-04-26T18:28:49.369Z,99.90
2019-04-26T18:30:47.381Z,99.90
2019-04-26T18:32:47.977Z,99.90
2019-04-26T18:34:49.524Z,99.90
2019-04-26T18:36:51.012Z,99.90
2019-04-26T18:38:53.652Z,99.90
2019-04-26T18:41:00.516Z,99.90
2019-04-26T18:42:58.481Z,99.90
2019-04-26T18:44:59.855Z,99.90
2019-04-26T18:47:14.694Z,99.90
2019-04-26T18:49:18.284Z,99.90
2019-04-26T18:51:18.414Z,99.90
2019-04-26T18:53:36.965Z,99.90
2019-04-26T18:55:37.163Z,99.90
2019-04-26T18:57:38.693Z,99.90
2019-04-26T18:59:40.086Z,99.90
2019-04-26T19:01:42.105Z,99.90
2019-04-26T19:03:43.798Z,99.90
2019-04-26T19:05:45.315Z,99.90
2019-04-26T19:07:50.203Z,99.90
2019-04-26T19:10:02.184Z,99.90
2019-04-26T19:11:56.000Z,99.90
2019-04-26T19:14:15.229Z,99.90
2019-04-26T19:16:35.907Z,99.90
2019-04-26T19:18:43.805Z,99.90
2019-04-26T19:21:04.958Z,99.90
2019-04-26T19:23:08.075Z,99.90
2019-04-26T19:25:20.841Z,99.90
2019-04-26T19:27:13.074Z,99.90
2019-04-26T19:29:17.808Z,99.90
2019-04-26T19:31:19.293Z,99.90
2019-04-26T19:33:21.722Z,99.90
2019-04-26T19:35:23.279Z,99.90
2019-04-26T19:37:24.645Z,99.90
2019-04-26T19:39:31.962Z,99.90
2019-04-26T19:41:29.406Z,99.90
2019-04-26T19:43:34.660Z,99.90
2019-04-26T19:45:39.571Z,99.90
2019-04-26T19:47:47.377Z,99.90
2019-04-26T19:49:53.707Z,99.90
2019-04-26T19:52:00.541Z,99.90
2019-04-26T19:54:03.992Z,99.90
2019-04-26T19:56:09.905Z,99.90
2019-04-26T19:58:16.233Z,99.90
2019-04-26T20:00:17.188Z,99.90
2019-04-26T20:02:18.967Z,99.90
2019-04-26T20:04:24.545Z,99.90
2019-04-26T20:06:25.422Z,99.90
2019-04-26T20:08:29.354Z,99.90
2019-04-26T20:10:30.229Z,99.90
2019-04-26T20:12:35.170Z,99.90
2019-04-26T20:14:44.719Z,99.90
2019-04-26T20:16:40.785Z,99.90
2019-04-26T20:18:42.076Z,99.90
2019-04-26T20:20:43.685Z,99.90
2019-04-26T20:22:45.229Z,99.90
2019-04-26T20:24:48.545Z,99.90
2019-04-26T20:26:49.895Z,99.90
2019-04-26T20:28:51.504Z,99.90
2019-04-26T20:31:05.884Z,99.90
2019-04-26T20:33:04.359Z,99.90
2019-04-26T20:35:14.345Z,99.90
2019-04-26T20:37:16.166Z,99.90
2019-04-26T20:39:20.974Z,99.90
2019-04-26T20:41:22.955Z,99.90
2019-04-26T20:43:26.742Z,99.90
2019-04-26T20:45:38.638Z,99.90
2019-04-26T20:47:32.068Z,99.90
2019-04-26T20:49:33.642Z,99.90
2019-04-26T20:51:35.002Z,99.90
2019-04-26T20:53:41.085Z,99.90
2019-04-26T20:55:39.907Z,99.90
2019-04-26T20:57:42.856Z,99.90
2019-04-26T20:59:44.609Z,99.90
2019-04-26T21:01:46.677Z,99.90
2019-04-26T21:03:48.288Z,99.90
2019-04-26T21:05:52.771Z,99.90
2019-04-26T21:07:53.170Z,99.90
2019-04-26T21:09:54.588Z,99.90
2019-04-26T21:11:55.956Z,99.90
2019-04-26T21:13:57.344Z,99.90
2019-04-26T21:16:03.685Z,99.90
2019-04-26T21:18:04.169Z,99.90
2019-04-26T21:20:07.383Z,99.90
2019-04-26T21:22:08.787Z,99.90
2019-04-26T21:24:13.356Z,99.90
2019-04-26T21:26:18.155Z,99.90
2019-04-26T21:28:24.310Z,99.90
2019-04-26T21:30:33.646Z,99.90
2019-04-26T21:32:40.641Z,99.90
2019-04-26T21:34:44.943Z,99.90
2019-04-26T21:36:56.831Z,99.90
2019-04-26T21:39:16.667Z,99.90
2019-04-26T21:41:19.951Z,99.90
2019-04-26T21:43:21.474Z,99.90
2019-04-26T21:45:28.415Z,99.90
2019-04-26T21:47:27.638Z,99.90
2019-04-26T21:49:29.641Z,99.90
2019-04-26T21:51:31.024Z,99.90
2019-04-26T21:53:32.720Z,99.90
2019-04-26T21:55:38.692Z,99.90
2019-04-26T21:57:39.067Z,99.90
2019-04-26T21:59:42.243Z,99.90
2019-04-26T22:01:48.294Z,99.90
2019-04-26T22:03:53.983Z,99.90
2019-04-26T22:05:50.891Z,99.90
2019-04-26T22:07:53.490Z,99.90
2019-04-26T22:09:56.974Z,99.90
2019-04-26T22:11:58.358Z,99.90
2019-04-26T22:14:19.873Z,99.90
2019-04-26T22:16:35.490Z,99.90
2019-04-26T22:18:56.849Z,99.90
2019-04-26T22:21:05.707Z,99.90
2019-04-26T22:23:25.391Z,99.90
2019-04-26T22:25:28.892Z,99.90
2019-04-26T22:27:30.261Z,99.90
2019-04-26T22:29:33.240Z,99.90
2019-04-26T22:31:37.861Z,99.90
2019-04-26T22:33:38.648Z,99.90
2019-04-26T22:35:40.013Z,99.90
2019-04-26T22:37:45.160Z,99.90
2019-04-26T22:39:44.695Z,99.90
2019-04-26T22:41:46.297Z,99.90
2019-04-26T22:43:53.908Z,99.90
2019-04-26T22:45:57.411Z,99.90
2019-04-26T22:48:03.528Z,99.90
2019-04-26T22:50:05.180Z,99.90
2019-04-26T22:52:11.222Z,99.90
2019-04-26T22:54:09.960Z,99.90
2019-04-26T22:56:13.286Z,99.90
2019-04-26T22:58:14.656Z,99.90
2019-04-26T23:00:19.858Z,99.90
2019-04-26T23:02:26.308Z,99.90
2019-04-26T23:04:26.412Z,99.90
2019-04-26T23:06:26.709Z,99.90
2019-04-26T23:08:30.773Z,99.90
2019-04-26T23:10:36.035Z,99.90
2019-04-26T23:13:07.791Z,99.90
2019-04-26T23:15:30.034Z,99.90
2019-04-26T23:17:39.775Z,99.90
2019-04-26T23:19:49.457Z,99.90
2019-04-26T23:21:59.825Z,99.90
2019-04-26T23:24:01.227Z,99.90
2019-04-26T23:26:06.181Z,99.90
2019-04-26T23:28:05.989Z,99.90
2019-04-26T23:30:08.275Z,99.90
2019-04-26T23:32:12.107Z,99.90
2019-04-26T23:34:14.295Z,99.90
2019-04-26T23:36:18.323Z,99.90
2019-04-26T23:38:19.168Z,99.90
2019-04-26T23:40:24.668Z,99.90
2019-04-26T23:42:25.130Z,99.90
2019-04-26T23:44:26.635Z,99.90
2019-04-26T23:46:28.028Z,99.90
2019-04-26T23:48:29.435Z,99.90
2019-04-26T23:50:31.410Z,99.90
2019-04-26T23:52:33.276Z,99.90
2019-04-26T23:54:35.974Z,99.90
2019-04-26T23:56:37.570Z,99.90
2019-04-26T23:58:40.337Z,99.90
